createdAt,value
2016-10-12T00:00:52.509Z,9.83
2016-10-12T00:01:53.187Z,9.83
2016-10-12T00:02:53.856Z,9.84
2016-10-12T00:03:54.545Z,9.86
2016-10-12T00:04:55.223Z,9.8
2016-10-12T00:05:55.896Z,9.84
2016-10-12T00:06:56.614Z,9.82
2016-10-12T00:07:57.291Z,9.84
2016-10-12T00:08:57.964Z,9.95
2016-10-12T00:09:58.639Z,9.79
2016-10-12T00:10:59.315Z,9.74
2016-10-12T00:11:59.979Z,9.8
2016-10-12T00:13:00.639Z,9.84
2016-10-12T00:14:01.326Z,9.83
2016-10-12T00:15:01.993Z,9.74
2016-10-12T00:16:02.657Z,9.83
2016-10-12T00:17:03.346Z,9.69
2016-10-12T00:18:04.016Z,9.74
2016-10-12T00:19:04.679Z,9.74
2016-10-12T00:20:05.342Z,9.72
2016-10-12T00:21:06.016Z,9.82
2016-10-12T00:22:06.688Z,9.76
2016-10-12T00:23:07.352Z,9.77
2016-10-12T00:24:08.037Z,9.68
2016-10-12T00:25:08.699Z,9.72
2016-10-12T00:26:09.386Z,9.72
2016-10-12T00:27:10.056Z,9.77
2016-10-12T00:28:10.783Z,9.76
2016-10-12T00:29:11.459Z,9.87
2016-10-12T00:30:12.129Z,9.74
2016-10-12T00:31:12.798Z,9.74
2016-10-12T00:32:13.467Z,9.73
2016-10-12T00:33:14.139Z,9.74
2016-10-12T00:34:14.813Z,9.72
2016-10-12T00:35:15.487Z,9.73
2016-10-12T00:36:16.148Z,9.74
2016-10-12T00:37:16.828Z,9.73
2016-10-12T00:38:17.501Z,9.83
2016-10-12T00:39:18.179Z,9.77
2016-10-12T00:40:18.845Z,9.77
2016-10-12T00:41:19.520Z,9.77
2016-10-12T00:42:20.188Z,9.76
2016-10-12T00:43:20.864Z,9.76
2016-10-12T00:44:21.547Z,9.76
2016-10-12T00:45:22.264Z,9.84
2016-10-12T00:46:22.945Z,9.77
2016-10-12T00:47:23.623Z,9.8
2016-10-12T00:48:24.316Z,9.76
2016-10-12T00:49:24.995Z,9.74
2016-10-12T00:50:25.679Z,9.77
2016-10-12T00:51:26.342Z,9.74
2016-10-12T00:52:27.012Z,9.73
2016-10-12T00:53:27.705Z,9.69
2016-10-12T00:54:28.434Z,9.72
2016-10-12T00:55:29.162Z,9.8
2016-10-12T00:56:29.864Z,9.74
2016-10-12T00:57:30.534Z,9.74
2016-10-12T00:58:31.195Z,9.74
2016-10-12T00:59:31.867Z,9.72
2016-10-12T01:00:32.540Z,9.72
2016-10-12T01:01:33.233Z,9.69
2016-10-12T01:02:33.888Z,9.68
2016-10-12T01:03:34.658Z,9.73
2016-10-12T01:04:35.332Z,9.72
2016-10-12T01:05:36.011Z,9.73
2016-10-12T01:06:36.691Z,9.69
2016-10-12T01:07:37.360Z,9.72
2016-10-12T01:08:38.024Z,9.69
2016-10-12T01:09:38.701Z,9.73
2016-10-12T01:10:39.367Z,9.66
2016-10-12T01:11:40.046Z,9.65
2016-10-12T01:12:40.711Z,9.65
2016-10-12T01:13:41.389Z,9.68
2016-10-12T01:14:42.049Z,9.68
2016-10-12T01:15:42.731Z,9.65
2016-10-12T01:16:43.404Z,9.64
2016-10-12T01:17:44.081Z,9.64
2016-10-12T01:18:44.753Z,9.64
2016-10-12T01:19:45.423Z,9.68
2016-10-12T01:20:46.098Z,9.59
2016-10-12T01:21:46.769Z,9.62
2016-10-12T01:22:47.432Z,9.68
2016-10-12T01:23:48.118Z,9.64
2016-10-12T01:24:48.784Z,9.64
2016-10-12T01:25:49.473Z,9.62
2016-10-12T01:26:50.166Z,9.61
2016-10-12T01:27:50.842Z,9.61
2016-10-12T01:28:51.523Z,9.66
2016-10-12T01:29:52.200Z,9.61
2016-10-12T01:30:52.905Z,9.56
2016-10-12T01:31:53.592Z,9.54
2016-10-12T01:32:54.265Z,9.65
2016-10-12T01:33:54.927Z,9.62
2016-10-12T01:34:55.615Z,9.61
2016-10-12T01:35:56.280Z,9.5
2016-10-12T01:36:56.950Z,9.51
2016-10-12T01:37:57.627Z,9.5
2016-10-12T01:38:58.296Z,9.61
2016-10-12T01:39:58.965Z,9.55
2016-10-12T01:40:59.640Z,9.5
2016-10-12T01:42:00.316Z,9.54
2016-10-12T01:43:00.983Z,9.59
2016-10-12T01:44:01.667Z,9.54
2016-10-12T01:45:02.328Z,9.48
2016-10-12T01:46:03.008Z,9.56
2016-10-12T01:47:03.679Z,9.58
2016-10-12T01:48:04.341Z,9.56
2016-10-12T01:49:05.018Z,9.51
2016-10-12T01:50:05.698Z,9.54
2016-10-12T01:51:06.375Z,9.5
2016-10-12T01:52:07.044Z,9.47
2016-10-12T01:53:07.707Z,9.46
2016-10-12T01:54:08.421Z,9.5
2016-10-12T01:55:09.160Z,9.48
2016-10-12T01:56:09.831Z,9.51
2016-10-12T01:57:10.526Z,9.48
2016-10-12T01:58:11.219Z,9.48
2016-10-12T01:59:11.893Z,9.51
2016-10-12T02:00:12.572Z,9.47
2016-10-12T02:01:13.247Z,9.37
2016-10-12T02:02:13.919Z,9.37
2016-10-12T02:03:14.587Z,9.36
2016-10-12T02:04:15.264Z,9.43
2016-10-12T02:05:15.933Z,9.37
2016-10-12T02:06:16.608Z,9.4
2016-10-12T02:07:17.283Z,9.46
2016-10-12T02:08:17.951Z,9.39
2016-10-12T02:09:18.617Z,9.34
2016-10-12T02:10:19.270Z,9.37
2016-10-12T02:11:19.966Z,9.36
2016-10-12T02:12:20.628Z,9.4
2016-10-12T02:13:21.314Z,9.32
2016-10-12T02:14:21.976Z,9.39
2016-10-12T02:15:22.660Z,9.4
2016-10-12T02:16:23.326Z,9.32
2016-10-12T02:17:24.007Z,9.32
2016-10-12T02:18:24.672Z,9.29
2016-10-12T02:19:25.362Z,9.32
2016-10-12T02:20:26.039Z,9.28
2016-10-12T02:21:26.706Z,9.25
2016-10-12T02:22:27.387Z,9.28
2016-10-12T02:23:28.047Z,9.21
2016-10-12T02:24:28.724Z,9.25
2016-10-12T02:25:29.396Z,9.19
2016-10-12T02:26:30.102Z,9.19
2016-10-12T02:27:30.766Z,9.04
2016-10-12T02:28:31.446Z,9.06
2016-10-12T02:29:32.108Z,9.04
2016-10-12T02:30:32.806Z,9.1
2016-10-12T02:31:33.499Z,9.16
2016-10-12T02:32:34.158Z,9.11
2016-10-12T02:33:34.830Z,9.16
2016-10-12T02:34:35.518Z,9.14
2016-10-12T02:35:36.176Z,9.04
2016-10-12T02:36:36.846Z,8.99
2016-10-12T02:37:37.543Z,9.13
2016-10-12T02:38:38.205Z,9.02
2016-10-12T02:39:38.932Z,9.13
2016-10-12T02:40:39.604Z,9.06
2016-10-12T02:41:40.276Z,9.03
2016-10-12T02:42:40.971Z,9.04
2016-10-12T02:43:41.641Z,9
2016-10-12T02:44:42.322Z,9.02
2016-10-12T02:45:43.019Z,9.1
2016-10-12T02:46:43.688Z,9.06
2016-10-12T02:47:44.363Z,9.1
2016-10-12T02:48:45.054Z,9.03
2016-10-12T02:49:45.738Z,9.13
2016-10-12T02:50:46.408Z,9.08
2016-10-12T02:51:47.099Z,9.1
2016-10-12T02:52:47.773Z,9.13
2016-10-12T02:53:48.446Z,9.02
2016-10-12T02:54:49.148Z,9
2016-10-12T02:55:49.821Z,9.02
2016-10-12T02:56:50.492Z,9.08
2016-10-12T02:57:51.173Z,9.03
2016-10-12T02:58:51.839Z,9.06
2016-10-12T02:59:52.508Z,9.08
2016-10-12T03:00:53.229Z,9.11
2016-10-12T03:01:53.925Z,9.04
2016-10-12T03:02:54.623Z,9.13
2016-10-12T03:03:55.321Z,9.08
2016-10-12T03:04:56.043Z,9.08
2016-10-12T03:05:56.748Z,9.04
2016-10-12T03:06:57.422Z,9.04
2016-10-12T03:07:58.084Z,9.04
2016-10-12T03:08:58.766Z,9.08
2016-10-12T03:09:59.432Z,9.06
2016-10-12T03:11:00.112Z,9.03
2016-10-12T03:12:00.805Z,9.1
2016-10-12T03:13:01.491Z,9.06
2016-10-12T03:14:02.178Z,9.13
2016-10-12T03:15:02.933Z,9.14
2016-10-12T03:16:03.632Z,9.19
2016-10-12T03:17:04.342Z,9.18
2016-10-12T03:18:04.997Z,9.13
2016-10-12T03:19:05.665Z,9.14
2016-10-12T03:20:06.339Z,9.16
2016-10-12T03:21:07.006Z,9.14
2016-10-12T03:22:07.679Z,9.18
2016-10-12T03:23:08.362Z,9.21
2016-10-12T03:24:09.034Z,9.16
2016-10-12T03:25:09.711Z,9.16
2016-10-12T03:26:10.375Z,9.18
2016-10-12T03:27:11.065Z,9.22
2016-10-12T03:28:11.736Z,9.18
2016-10-12T03:29:12.427Z,9.13
2016-10-12T03:30:13.086Z,9.14
2016-10-12T03:31:13.741Z,9.21
2016-10-12T03:32:14.429Z,9.18
2016-10-12T03:33:15.100Z,9.11
2016-10-12T03:34:15.772Z,9.11
2016-10-12T03:35:16.476Z,9.13
2016-10-12T03:36:17.154Z,9.16
2016-10-12T03:37:17.828Z,9.11
2016-10-12T03:38:18.491Z,9.11
2016-10-12T03:39:19.162Z,9.06
2016-10-12T03:40:19.841Z,9.1
2016-10-12T03:41:20.527Z,9.1
2016-10-12T03:42:21.200Z,9.1
2016-10-12T03:43:21.875Z,9.13
2016-10-12T03:44:22.576Z,9.13
2016-10-12T03:45:23.258Z,9.16
2016-10-12T03:46:23.919Z,9.08
2016-10-12T03:47:24.598Z,9.03
2016-10-12T03:48:25.262Z,9.1
2016-10-12T03:49:25.952Z,9.03
2016-10-12T03:50:26.614Z,9.1
2016-10-12T03:51:27.277Z,9.13
2016-10-12T03:52:27.950Z,9.04
2016-10-12T03:53:28.635Z,8.99
2016-10-12T03:54:29.294Z,8.97
2016-10-12T03:55:29.986Z,8.99
2016-10-12T03:56:30.666Z,9.02
2016-10-12T03:57:31.341Z,8.99
2016-10-12T03:58:32.012Z,9.02
2016-10-12T03:59:32.706Z,9.02
2016-10-12T04:00:33.380Z,8.91
2016-10-12T04:01:34.054Z,8.99
2016-10-12T04:02:34.729Z,8.95
2016-10-12T04:03:35.395Z,8.89
2016-10-12T04:04:36.076Z,8.91
2016-10-12T04:05:36.740Z,8.95
2016-10-12T04:06:37.415Z,9.02
2016-10-12T04:07:38.091Z,8.91
2016-10-12T04:08:38.762Z,8.99
2016-10-12T04:09:39.434Z,8.92
2016-10-12T04:10:40.108Z,8.92
2016-10-12T04:11:40.801Z,8.91
2016-10-12T04:12:41.513Z,8.97
2016-10-12T04:13:42.175Z,8.92
2016-10-12T04:14:42.839Z,8.92
2016-10-12T04:15:43.518Z,8.92
2016-10-12T04:16:44.192Z,8.89
2016-10-12T04:17:44.865Z,8.99
2016-10-12T04:18:45.535Z,8.87
2016-10-12T04:19:46.212Z,8.92
2016-10-12T04:20:46.877Z,8.92
2016-10-12T04:21:47.552Z,8.87
2016-10-12T04:22:48.224Z,8.91
2016-10-12T04:23:48.903Z,8.79
2016-10-12T04:24:49.566Z,8.81
2016-10-12T04:25:50.237Z,8.81
2016-10-12T04:26:50.917Z,8.82
2016-10-12T04:27:51.603Z,8.76
2016-10-12T04:28:52.305Z,8.81
2016-10-12T04:29:52.991Z,8.81
2016-10-12T04:30:53.665Z,8.74
2016-10-12T04:31:54.339Z,8.81
2016-10-12T04:32:55.051Z,8.76
2016-10-12T04:33:55.734Z,8.69
2016-10-12T04:34:56.438Z,8.73
2016-10-12T04:35:57.109Z,8.78
2016-10-12T04:36:57.787Z,8.78
2016-10-12T04:37:58.471Z,8.84
2016-10-12T04:38:59.143Z,8.7
2016-10-12T04:39:59.814Z,8.84
2016-10-12T04:41:00.490Z,8.76
2016-10-12T04:42:01.161Z,8.85
2016-10-12T04:43:01.831Z,8.81
2016-10-12T04:44:02.504Z,8.71
2016-10-12T04:45:03.169Z,8.78
2016-10-12T04:46:03.840Z,8.81
2016-10-12T04:47:04.556Z,8.82
2016-10-12T04:48:05.241Z,8.79
2016-10-12T04:49:05.912Z,8.92
2016-10-12T04:50:06.637Z,8.88
2016-10-12T04:51:07.300Z,8.91
2016-10-12T04:52:07.980Z,8.88
2016-10-12T04:53:08.638Z,8.78
2016-10-12T04:54:09.311Z,8.81
2016-10-12T04:55:09.996Z,8.81
2016-10-12T04:56:10.663Z,8.79
2016-10-12T04:57:11.358Z,8.81
2016-10-12T04:58:12.014Z,8.85
2016-10-12T04:59:12.688Z,8.87
2016-10-12T05:00:13.359Z,8.81
2016-10-12T05:01:14.030Z,8.71
2016-10-12T05:02:14.692Z,8.92
2016-10-12T05:03:15.372Z,8.88
2016-10-12T05:04:16.051Z,8.95
2016-10-12T05:05:16.720Z,8.85
2016-10-12T05:06:17.393Z,8.89
2016-10-12T05:07:18.094Z,8.79
2016-10-12T05:08:18.777Z,8.81
2016-10-12T05:09:19.462Z,8.81
2016-10-12T05:10:20.146Z,8.81
2016-10-12T05:11:20.825Z,8.82
2016-10-12T05:12:21.497Z,8.85
2016-10-12T05:13:22.191Z,8.71
2016-10-12T05:14:22.870Z,8.74
2016-10-12T05:15:23.591Z,8.73
2016-10-12T05:16:24.261Z,8.71
2016-10-12T05:17:24.954Z,8.79
2016-10-12T05:18:25.727Z,8.73
2016-10-12T05:19:26.433Z,8.73
2016-10-12T05:20:27.125Z,8.76
2016-10-12T05:21:27.792Z,8.73
2016-10-12T05:22:28.515Z,8.71
2016-10-12T05:23:29.216Z,8.78
2016-10-12T05:24:29.899Z,8.7
2016-10-12T05:25:31.004Z,8.69
2016-10-12T05:26:31.702Z,8.63
2016-10-12T05:27:32.389Z,8.64
2016-10-12T05:28:33.064Z,8.63
2016-10-12T05:29:33.773Z,8.61
2016-10-12T05:30:34.435Z,8.7
2016-10-12T05:31:35.114Z,8.73
2016-10-12T05:32:35.781Z,8.7
2016-10-12T05:33:36.459Z,8.73
2016-10-12T05:34:37.123Z,8.71
2016-10-12T05:35:37.818Z,8.7
2016-10-12T05:36:38.509Z,8.74
2016-10-12T05:37:39.164Z,8.71
2016-10-12T05:38:39.876Z,8.69
2016-10-12T05:39:40.605Z,8.69
2016-10-12T05:40:41.281Z,8.69
2016-10-12T05:41:41.957Z,8.63
2016-10-12T05:42:42.632Z,8.61
2016-10-12T05:43:43.300Z,8.61
2016-10-12T05:44:43.964Z,8.63
2016-10-12T05:45:44.630Z,8.6
2016-10-12T05:46:45.308Z,8.56
2016-10-12T05:47:45.991Z,8.55
2016-10-12T05:48:46.666Z,8.45
2016-10-12T05:49:47.680Z,8.46
2016-10-12T05:50:48.358Z,8.58
2016-10-12T05:51:49.035Z,8.56
2016-10-12T05:52:49.701Z,8.49
2016-10-12T05:53:50.375Z,8.45
2016-10-12T05:54:51.047Z,8.48
2016-10-12T05:55:54.364Z,8.53
2016-10-12T05:56:56.702Z,8.49
2016-10-12T05:57:57.320Z,8.53
2016-10-12T05:59:00.136Z,8.52
2016-10-12T06:00:01.830Z,8.48
2016-10-12T06:01:02.515Z,8.46
2016-10-12T06:02:03.187Z,8.52
2016-10-12T06:03:03.893Z,8.58
2016-10-12T06:04:04.584Z,8.61
2016-10-12T06:05:05.299Z,8.6
2016-10-12T06:06:05.963Z,8.66
2016-10-12T06:07:06.641Z,8.56
2016-10-12T06:08:07.308Z,8.56
2016-10-12T06:09:07.979Z,8.56
2016-10-12T06:10:08.648Z,8.63
2016-10-12T06:11:09.340Z,8.6
2016-10-12T06:12:10.017Z,8.63
2016-10-12T06:13:10.690Z,8.69
2016-10-12T06:14:11.388Z,8.63
2016-10-12T06:15:12.064Z,8.56
2016-10-12T06:16:12.736Z,8.55
2016-10-12T06:17:13.406Z,8.6
2016-10-12T06:18:14.126Z,8.63
2016-10-12T06:19:14.866Z,8.61
2016-10-12T06:20:15.637Z,8.61
2016-10-12T06:21:16.308Z,8.58
2016-10-12T06:22:17.026Z,8.69
2016-10-12T06:23:17.698Z,8.69
2016-10-12T06:24:18.370Z,8.69
2016-10-12T06:25:19.048Z,8.73
2016-10-12T06:26:19.720Z,8.73
2016-10-12T06:27:20.386Z,8.63
2016-10-12T06:28:21.072Z,8.64
2016-10-12T06:29:21.730Z,8.67
2016-10-12T06:30:22.402Z,8.64
2016-10-12T06:31:23.072Z,8.66
2016-10-12T06:32:23.743Z,8.64
2016-10-12T06:33:24.414Z,8.7
2016-10-12T06:34:25.099Z,8.66
2016-10-12T06:35:25.764Z,8.66
2016-10-12T06:36:26.457Z,8.64
2016-10-12T06:37:27.185Z,8.64
2016-10-12T06:38:27.830Z,8.69
2016-10-12T06:39:28.503Z,8.7
2016-10-12T06:40:29.196Z,8.73
2016-10-12T06:41:29.860Z,8.74
2016-10-12T06:42:30.531Z,8.73
2016-10-12T06:43:31.224Z,8.82
2016-10-12T06:44:31.891Z,8.85
2016-10-12T06:45:32.559Z,8.79
2016-10-12T06:46:33.259Z,8.81
2016-10-12T06:47:33.935Z,8.79
2016-10-12T06:48:34.606Z,8.85
2016-10-12T06:49:35.282Z,8.85
2016-10-12T06:50:35.960Z,8.69
2016-10-12T06:51:36.633Z,8.73
2016-10-12T06:52:37.294Z,8.74
2016-10-12T06:53:37.963Z,8.7
2016-10-12T06:54:38.644Z,8.71
2016-10-12T06:55:39.312Z,8.67
2016-10-12T06:56:40.034Z,8.81
2016-10-12T06:57:40.757Z,8.71
2016-10-12T06:58:41.432Z,8.73
2016-10-12T06:59:42.162Z,8.73
2016-10-12T07:00:42.829Z,8.71
2016-10-12T07:01:43.505Z,8.74
2016-10-12T07:02:44.176Z,8.81
2016-10-12T07:03:44.845Z,8.78
2016-10-12T07:04:45.515Z,8.81
2016-10-12T07:05:46.194Z,8.94
2016-10-12T07:06:46.868Z,8.78
2016-10-12T07:07:47.554Z,8.81
2016-10-12T07:08:48.261Z,8.81
2016-10-12T07:09:48.929Z,8.92
2016-10-12T07:10:49.603Z,8.94
2016-10-12T07:11:50.264Z,8.95
2016-10-12T07:12:50.944Z,8.89
2016-10-12T07:13:51.607Z,8.78
2016-10-12T07:14:52.292Z,8.82
2016-10-12T07:15:52.963Z,8.82
2016-10-12T07:16:53.646Z,8.78
2016-10-12T07:17:54.308Z,8.78
2016-10-12T07:18:55.089Z,8.88
2016-10-12T07:19:55.770Z,8.87
2016-10-12T07:20:56.440Z,8.81
2016-10-12T07:21:57.100Z,8.84
2016-10-12T07:22:57.776Z,8.81
2016-10-12T07:23:58.446Z,8.82
2016-10-12T07:24:59.119Z,8.84
2016-10-12T07:25:59.852Z,8.92
2016-10-12T07:27:00.689Z,8.81
2016-10-12T07:28:01.393Z,8.82
2016-10-12T07:29:02.087Z,8.89
2016-10-12T07:30:02.916Z,8.94
2016-10-12T07:31:03.606Z,8.89
2016-10-12T07:32:04.287Z,9
2016-10-12T07:33:04.960Z,9.03
2016-10-12T07:34:05.671Z,9.02
2016-10-12T07:35:06.359Z,8.92
2016-10-12T07:36:07.029Z,8.94
2016-10-12T07:37:07.726Z,8.94
2016-10-12T07:38:08.793Z,8.89
2016-10-12T07:39:09.506Z,8.88
2016-10-12T07:40:10.176Z,8.94
2016-10-12T07:41:10.852Z,8.91
2016-10-12T07:42:11.527Z,8.89
2016-10-12T07:43:12.290Z,9.02
2016-10-12T07:44:13.030Z,8.91
2016-10-12T07:45:13.741Z,8.91
2016-10-12T07:46:14.459Z,9
2016-10-12T07:47:15.126Z,8.92
2016-10-12T07:48:15.827Z,8.99
2016-10-12T07:49:16.595Z,8.99
2016-10-12T07:50:17.328Z,9
2016-10-12T07:51:17.988Z,9.06
2016-10-12T07:52:18.777Z,9.03
2016-10-12T07:53:19.481Z,9.16
2016-10-12T07:54:20.205Z,9.1
2016-10-12T07:55:20.989Z,9.11
2016-10-12T07:56:21.673Z,9.1
2016-10-12T07:57:22.518Z,9.11
2016-10-12T07:58:23.221Z,9
2016-10-12T07:59:23.915Z,9
2016-10-12T08:00:24.718Z,9.1
2016-10-12T08:01:25.523Z,9.16
2016-10-12T08:02:26.376Z,9.21
2016-10-12T08:03:27.149Z,9.08
2016-10-12T08:04:27.889Z,9.08
2016-10-12T08:05:28.634Z,9.08
2016-10-12T08:06:29.316Z,9.13
2016-10-12T08:07:30.003Z,9.13
2016-10-12T08:08:30.694Z,9.14
2016-10-12T08:09:31.436Z,9.19
2016-10-12T08:10:32.202Z,9.26
2016-10-12T08:11:32.917Z,9.31
2016-10-12T08:12:33.694Z,9.32
2016-10-12T08:13:34.380Z,9.39
2016-10-12T08:14:35.103Z,9.32
2016-10-12T08:15:35.818Z,9.47
2016-10-12T08:16:36.728Z,9.34
2016-10-12T08:17:37.466Z,9.31
2016-10-12T08:18:38.150Z,9.39
2016-10-12T08:19:38.880Z,9.4
2016-10-12T08:20:39.544Z,9.43
2016-10-12T08:21:40.382Z,9.51
2016-10-12T08:22:41.083Z,9.5
2016-10-12T08:23:41.748Z,9.47
2016-10-12T08:24:42.463Z,9.58
2016-10-12T08:25:43.162Z,9.5
2016-10-12T08:26:43.823Z,9.47
2016-10-12T08:27:44.709Z,9.43
2016-10-12T08:28:45.431Z,9.47
2016-10-12T08:29:46.113Z,9.55
2016-10-12T08:30:46.824Z,9.48
2016-10-12T08:31:47.577Z,9.65
2016-10-12T08:32:48.314Z,9.62
2016-10-12T08:33:49.000Z,9.66
2016-10-12T08:34:49.778Z,9.65
2016-10-12T08:35:50.495Z,9.73
2016-10-12T08:36:51.306Z,9.74
2016-10-12T08:37:52.063Z,9.74
2016-10-12T08:38:52.795Z,9.61
2016-10-12T08:39:53.474Z,9.65
2016-10-12T08:40:54.174Z,9.65
2016-10-12T08:41:54.944Z,9.77
2016-10-12T08:42:55.659Z,9.72
2016-10-12T08:43:56.348Z,9.84
2016-10-12T08:44:57.104Z,9.86
2016-10-12T08:45:57.790Z,9.92
2016-10-12T08:46:58.532Z,9.95
2016-10-12T08:47:59.206Z,10.02
2016-10-12T08:48:59.903Z,10.09
2016-10-12T08:50:00.637Z,10.04
2016-10-12T08:51:01.332Z,9.99
2016-10-12T08:52:02.004Z,10.04
2016-10-12T08:53:02.732Z,10.07
2016-10-12T08:54:03.411Z,10.04
2016-10-12T08:55:04.132Z,10.17
2016-10-12T08:56:04.842Z,10.2
2016-10-12T08:57:05.490Z,10.22
2016-10-12T08:58:06.202Z,10.34
2016-10-12T08:59:06.857Z,10.34
2016-10-12T09:00:07.563Z,10.34
2016-10-12T09:01:08.288Z,10.4
2016-10-12T09:02:08.998Z,10.57
2016-10-12T09:03:09.703Z,10.63
2016-10-12T09:04:10.432Z,10.75
2016-10-12T09:05:11.168Z,10.75
2016-10-12T09:06:11.877Z,10.71
2016-10-12T09:07:12.559Z,10.63
2016-10-12T09:08:13.286Z,10.86
2016-10-12T09:09:13.976Z,10.76
2016-10-12T09:10:14.687Z,10.68
2016-10-12T09:11:15.398Z,10.67
2016-10-12T09:12:16.084Z,10.74
2016-10-12T09:13:16.758Z,10.89
2016-10-12T09:14:17.471Z,10.89
2016-10-12T09:15:18.332Z,10.72
2016-10-12T09:16:19.025Z,10.79
2016-10-12T09:17:19.735Z,10.79
2016-10-12T09:18:20.422Z,10.67
2016-10-12T09:19:21.108Z,10.69
2016-10-12T09:20:21.800Z,10.69
2016-10-12T09:21:22.490Z,10.71
2016-10-12T09:22:23.167Z,10.69
2016-10-12T09:23:23.871Z,10.67
2016-10-12T09:24:24.544Z,10.69
2016-10-12T09:25:25.240Z,10.67
2016-10-12T09:26:25.933Z,10.64
2016-10-12T09:27:26.647Z,10.82
2016-10-12T09:28:27.325Z,10.78
2016-10-12T09:29:28.077Z,10.78
2016-10-12T09:30:28.822Z,10.67
2016-10-12T09:31:29.506Z,10.72
2016-10-12T09:32:30.214Z,10.68
2016-10-12T09:33:30.930Z,10.75
2016-10-12T09:34:31.645Z,10.69
2016-10-12T09:35:32.328Z,10.68
2016-10-12T09:36:33.013Z,10.71
2016-10-12T09:37:33.706Z,10.67
2016-10-12T09:38:34.423Z,10.74
2016-10-12T09:39:35.158Z,10.84
2016-10-12T09:40:35.873Z,10.78
2016-10-12T09:41:36.575Z,10.72
2016-10-12T09:42:37.248Z,10.79
2016-10-12T09:43:37.933Z,10.78
2016-10-12T09:44:38.625Z,10.67
2016-10-12T09:45:39.326Z,10.71
2016-10-12T09:46:40.058Z,10.74
2016-10-12T09:47:40.795Z,10.57
2016-10-12T09:48:41.489Z,10.67
2016-10-12T09:49:42.200Z,10.74
2016-10-12T09:50:42.931Z,10.71
2016-10-12T09:51:43.632Z,10.76
2016-10-12T09:52:44.488Z,10.6
2016-10-12T09:53:45.174Z,10.6
2016-10-12T09:54:45.870Z,10.67
2016-10-12T09:55:46.570Z,10.69
2016-10-12T09:56:47.285Z,10.69
2016-10-12T09:57:47.968Z,10.69
2016-10-12T09:58:48.711Z,10.75
2016-10-12T09:59:49.452Z,10.74
2016-10-12T10:00:50.177Z,10.79
2016-10-12T10:01:50.871Z,10.87
2016-10-12T10:02:51.571Z,10.9
2016-10-12T10:03:52.284Z,10.99
2016-10-12T10:04:52.966Z,10.99
2016-10-12T10:05:53.656Z,10.87
2016-10-12T10:06:54.354Z,10.89
2016-10-12T10:07:55.041Z,11.02
2016-10-12T10:08:55.739Z,11.07
2016-10-12T10:09:56.441Z,10.96
2016-10-12T10:10:57.118Z,11.11
2016-10-12T10:11:57.811Z,11.07
2016-10-12T10:12:58.498Z,11.18
2016-10-12T10:13:59.199Z,11.22
2016-10-12T10:14:59.944Z,11.18
2016-10-12T10:16:00.620Z,11.12
2016-10-12T10:17:01.297Z,11.1
2016-10-12T10:18:01.980Z,11.05
2016-10-12T10:19:02.652Z,11.04
2016-10-12T10:20:03.359Z,10.99
2016-10-12T10:21:04.035Z,11.07
2016-10-12T10:22:04.783Z,11.07
2016-10-12T10:23:05.474Z,11.07
2016-10-12T10:24:06.152Z,11.1
2016-10-12T10:25:06.845Z,11.12
2016-10-12T10:26:07.551Z,11.1
2016-10-12T10:27:08.228Z,11.18
2016-10-12T10:28:08.929Z,11.15
2016-10-12T10:29:09.642Z,11.17
2016-10-12T10:30:10.334Z,11.19
2016-10-12T10:31:10.999Z,11.1
2016-10-12T10:32:11.674Z,11.05
2016-10-12T10:33:12.350Z,11.11
2016-10-12T10:34:13.022Z,11.08
2016-10-12T10:35:13.719Z,11.12
2016-10-12T10:36:14.478Z,11.17
2016-10-12T10:37:15.184Z,11.17
2016-10-12T10:38:15.866Z,11.15
2016-10-12T10:39:16.562Z,11.15
2016-10-12T10:40:17.248Z,11.18
2016-10-12T10:41:17.936Z,11.18
2016-10-12T10:42:18.623Z,11.22
2016-10-12T10:43:19.317Z,11.14
2016-10-12T10:44:20.060Z,11.05
2016-10-12T10:45:20.811Z,11.1
2016-10-12T10:46:21.506Z,11.1
2016-10-12T10:47:22.211Z,11.1
2016-10-12T10:48:22.900Z,11
2016-10-12T10:49:23.598Z,10.92
2016-10-12T10:50:24.307Z,10.81
2016-10-12T10:51:25.020Z,10.87
2016-10-12T10:52:25.741Z,10.96
2016-10-12T10:53:26.504Z,10.93
2016-10-12T10:54:27.235Z,10.93
2016-10-12T10:55:27.975Z,10.87
2016-10-12T10:56:28.702Z,10.86
2016-10-12T10:57:29.443Z,10.84
2016-10-12T10:58:30.184Z,10.89
2016-10-12T10:59:30.971Z,10.92
2016-10-12T11:00:31.793Z,10.87
2016-10-12T11:01:32.538Z,10.92
2016-10-12T11:02:33.241Z,10.76
2016-10-12T11:03:33.923Z,10.82
2016-10-12T11:04:34.631Z,10.79
2016-10-12T11:05:35.340Z,10.79
2016-10-12T11:06:36.203Z,10.9
2016-10-12T11:07:36.896Z,10.87
2016-10-12T11:08:37.615Z,10.9
2016-10-12T11:09:38.311Z,10.94
2016-10-12T11:10:39.018Z,10.94
2016-10-12T11:11:39.771Z,11.05
2016-10-12T11:12:40.485Z,11.05
2016-10-12T11:13:41.222Z,11.02
2016-10-12T11:14:41.881Z,10.92
2016-10-12T11:15:42.586Z,10.97
2016-10-12T11:16:43.264Z,10.9
2016-10-12T11:17:43.953Z,10.92
2016-10-12T11:18:44.671Z,10.92
2016-10-12T11:19:45.382Z,10.93
2016-10-12T11:20:46.060Z,10.84
2016-10-12T11:21:46.787Z,10.93
2016-10-12T11:22:47.467Z,10.93
2016-10-12T11:23:48.168Z,11.02
2016-10-12T11:24:48.893Z,11.02
2016-10-12T11:25:49.579Z,10.99
2016-10-12T11:26:50.295Z,11.08
2016-10-12T11:27:50.969Z,11.04
2016-10-12T11:28:51.670Z,10.97
2016-10-12T11:29:52.359Z,10.99
2016-10-12T11:30:53.089Z,10.94
2016-10-12T11:31:53.815Z,10.99
2016-10-12T11:32:54.540Z,10.94
2016-10-12T11:33:55.281Z,10.84
2016-10-12T11:34:55.959Z,10.84
2016-10-12T11:35:56.728Z,10.81
2016-10-12T11:36:57.425Z,10.79
2016-10-12T11:37:58.131Z,10.79
2016-10-12T11:38:58.818Z,10.81
2016-10-12T11:39:59.495Z,10.79
2016-10-12T11:41:00.176Z,10.84
2016-10-12T11:42:00.839Z,10.82
2016-10-12T11:43:01.532Z,10.78
2016-10-12T11:44:02.215Z,10.82
2016-10-12T11:45:02.929Z,10.81
2016-10-12T11:46:03.634Z,10.78
2016-10-12T11:47:04.309Z,10.74
2016-10-12T11:48:04.987Z,10.72
2016-10-12T11:49:05.658Z,10.81
2016-10-12T11:50:06.315Z,10.69
2016-10-12T11:51:06.984Z,10.71
2016-10-12T11:52:07.654Z,10.64
2016-10-12T11:53:08.380Z,10.54
2016-10-12T11:54:09.075Z,10.44
2016-10-12T11:55:09.747Z,10.46
2016-10-12T11:56:10.419Z,10.53
2016-10-12T11:57:11.177Z,10.4
2016-10-12T11:58:11.886Z,10.38
2016-10-12T11:59:12.580Z,10.4
2016-10-12T12:00:13.258Z,10.35
2016-10-12T12:01:13.917Z,10.33
2016-10-12T12:02:14.599Z,10.31
2016-10-12T12:03:15.313Z,10.33
2016-10-12T12:04:15.986Z,10.38
2016-10-12T12:05:16.660Z,10.35
2016-10-12T12:06:17.335Z,10.31
2016-10-12T12:07:18.060Z,10.28
2016-10-12T12:08:18.727Z,10.31
2016-10-12T12:09:19.420Z,10.44
2016-10-12T12:10:20.188Z,10.41
2016-10-12T12:11:20.869Z,10.41
2016-10-12T12:12:21.561Z,10.44
2016-10-12T12:13:22.242Z,10.42
2016-10-12T12:14:22.919Z,10.28
2016-10-12T12:15:23.593Z,10.35
2016-10-12T12:16:24.267Z,10.35
2016-10-12T12:17:24.985Z,10.35
2016-10-12T12:18:25.712Z,10.35
2016-10-12T12:19:26.407Z,10.31
2016-10-12T12:20:27.112Z,10.28
2016-10-12T12:21:27.811Z,10.3
2016-10-12T12:22:28.516Z,10.31
2016-10-12T12:23:29.223Z,10.34
2016-10-12T12:24:29.889Z,10.31
2016-10-12T12:25:30.569Z,10.33
2016-10-12T12:26:31.236Z,10.35
2016-10-12T12:27:31.914Z,10.4
2016-10-12T12:28:32.587Z,10.4
2016-10-12T12:29:33.262Z,10.48
2016-10-12T12:30:33.938Z,10.44
2016-10-12T12:31:34.650Z,10.44
2016-10-12T12:32:35.321Z,10.42
2016-10-12T12:33:35.991Z,10.42
2016-10-12T12:34:36.667Z,10.3
2016-10-12T12:35:37.341Z,10.35
2016-10-12T12:36:38.015Z,10.23
2016-10-12T12:37:38.692Z,10.2
2016-10-12T12:38:39.363Z,10.35
2016-10-12T12:39:40.029Z,10.28
2016-10-12T12:40:40.710Z,10.3
2016-10-12T12:41:41.415Z,10.35
2016-10-12T12:42:42.096Z,10.33
2016-10-12T12:43:42.782Z,10.3
2016-10-12T12:44:43.496Z,10.26
2016-10-12T12:45:44.182Z,10.26
2016-10-12T12:46:44.920Z,10.23
2016-10-12T12:47:45.656Z,10.28
2016-10-12T12:48:46.334Z,10.23
2016-10-12T12:49:47.053Z,10.28
2016-10-12T12:50:47.733Z,10.35
2016-10-12T12:51:48.407Z,10.28
2016-10-12T12:52:49.139Z,10.22
2016-10-12T12:53:49.821Z,10.31
2016-10-12T12:54:50.521Z,10.35
2016-10-12T12:55:51.210Z,10.22
2016-10-12T12:56:51.934Z,10.26
2016-10-12T12:57:52.646Z,10.34
2016-10-12T12:58:53.337Z,10.41
2016-10-12T12:59:54.039Z,10.37
2016-10-12T13:00:54.757Z,10.31
2016-10-12T13:01:55.445Z,10.3
2016-10-12T13:02:56.179Z,10.3
2016-10-12T13:03:56.945Z,10.34
2016-10-12T13:04:57.654Z,10.35
2016-10-12T13:05:58.340Z,10.31
2016-10-12T13:06:59.049Z,10.31
2016-10-12T13:07:59.729Z,10.31
2016-10-12T13:09:00.432Z,10.4
2016-10-12T13:10:01.130Z,10.4
2016-10-12T13:11:01.810Z,10.44
2016-10-12T13:12:02.525Z,10.34
2016-10-12T13:13:03.248Z,10.31
2016-10-12T13:14:03.983Z,10.44
2016-10-12T13:15:04.696Z,10.44
2016-10-12T13:16:05.373Z,10.49
2016-10-12T13:17:06.054Z,10.57
2016-10-12T13:18:06.762Z,10.53
2016-10-12T13:19:07.441Z,10.54
2016-10-12T13:20:08.149Z,10.54
2016-10-12T13:21:08.877Z,10.4
2016-10-12T13:22:09.646Z,10.37